Hokah, MN (55941)

6:45 PM CDT on May 25, 2015 (GMT -0500)
East | | Change Station
CLOSE
Current Station
Personal Weather Station
Location: La Crosse, WI
Elevation: 653 ft
Nearby Weather Stations
Active Advisory: Special Statement

Elev 653 ft 43.78 °N, 91.22 °W | Updated 56 seconds ago

Partly Cloudy
Partly Cloudy
76.1 °F
Feels Like 78 °F
N
0.0
Wind Variable Wind from South
Gusts 4.0 mph

Today
High -- | Low -- °F
--% Chance of Precip.
Yesterday
High -- | Low -- °F
Precip. -- in
5:31 AM 8:34 PM
First Quarter, 52% visible
Pressure 29.75 in
Visibility 10.0 miles
Clouds Few 4800 ft
Scattered Clouds 6500 ft
Mostly Cloudy 10000 ft
Heat Index 78 °F
Dew Point 64 °F
Humidity 65%
Rainfall 0.15 in
Snow Depth Not available.
UV 1 out of 12
Pollen .80 out of 12
Air Quality Not available.
Flu Activity Sporadic
METAR KLSE 252253Z 21007KT 10SM FEW048 SCT065 BKN100 22/17 A2977 RMK AO2 RAB2155E15 SLP075 P0000 T02220172

More Conditions Fewer Conditions

Pressure 29.75 in
Visibility 10.0 miles
Clouds Few 4800 ft
Scattered Clouds 6500 ft
Mostly Cloudy 10000 ft
Heat Index 78 °F
Dew Point 64 °F
Humidity 65%
Rainfall 0.15 in
Snow Depth Not available.
UV 1 out of 12
Pollen .80 out of 12
Air Quality Not available.
Flu Activity Sporadic
METAR KLSE 252253Z 21007KT 10SM FEW048 SCT065 BKN100 22/17 A2977 RMK AO2 RAB2155E15 SLP075 P0000 T02220172

More Conditions Fewer Conditions

10-Day Weather Forecast

Almanac

Astronomy

May. 25, 2015 Rise Set
Actual Time
Civil Twilight
Nautical Twilight
Astronomical Twilight
Moon
Length of Visible Light
Length of Day
Tomorrow will be .
, % of the Moon is Illuminated

Today's Extremes

State Highs State Lows

Community

WunderPhotos

Upload Photos

1,824,173 photos uploaded!

WunderBlogs® & News

Nearby

Air Quality

  Air Quality AQ Index Pollutant
Not available.

Snow Depth

Station Depth Elevation

Earthquake Activity

City Distance Mag. Time & Date
Minimum magnitude displayed is 2.5.

Coastal Water Temperatures

Place Temperature

Stations

Nearby Weather Stations

Station Location Temp. Windchill Dew Point Humidity Wind Precip. Elev Updated Type
                   
Special Statement
Statement as of 5:31 PM CDT on May 25, 2015

... Showers and storms moving northeast across the area...

Scattered showers and thunderstorms continued to move across
parts of the area late this afternoon. Most of the showers and
storms were located from near Dodge Center and Wabasha Minnesota
to Mondovi... Black River Falls and Friendship Wisconsin. All the
showers and storms were moving northeast at 30 mph.

Any stronger storms will be capable of producing gusty winds of
30 to 40 mph... small hail and brief heavy downpours... along with
dangerous cloud to ground lightning strikes.

If a thunderstorm approaches your location move indoors until it
passes. Be prepared for poor visibilities if you are driving and
run into one of the downpours.

Rrs